Time;durP1;ratioP1;P1;durP2;ratioP2;P2;SDS_P1;SDS_P2;PMS_P1;PMS_P2;Temp;Humidity;BMP_temperature;BMP_pressure;BME280_temperature;BME280_humidity;BME280_pressure;Samples;Min_cycle;Max_cycle;Signal;HPM_P1;HPM_P2
2022/10/03 00:05:13;;;;;;;4.00;1.10;;;15.00;95.50;;;;;;10285135;28;20041;-63
2022/10/03 00:10:42;;;;;;;3.45;0.93;;;15.00;95.50;;;;;;10247351;28;20677;-63
2022/10/03 00:16:05;;;;;;;4.13;0.90;;;15.00;95.60;;;;;;10286882;28;20031;-63
2022/10/03 00:21:17;;;;;;;2.25;0.80;;;14.90;95.50;;;;;;10286868;28;20047;-63
2022/10/03 00:26:57;;;;;;;3.08;0.73;;;14.90;95.50;;;;;;10287714;28;20058;-63
2022/10/03 00:32:20;;;;;;;3.45;0.75;;;14.90;95.50;;;;;;10287582;28;20320;-63
2022/10/03 00:37:34;;;;;;;2.50;0.80;;;14.90;95.50;;;;;;10285055;28;20035;-62
2022/10/03 00:43:03;;;;;;;2.10;0.70;;;14.90;95.50;;;;;;10284457;28;20050;-63
2022/10/03 00:48:26;;;;;;;3.55;0.60;;;14.80;95.50;;;;;;10281565;28;20027;-63
2022/10/03 00:53:52;;;;;;;2.78;0.60;;;14.80;95.50;;;;;;10266565;28;20391;-63
2022/10/03 00:59:16;;;;;;;4.00;0.85;;;14.80;95.50;;;;;;10286743;28;20065;-64
2022/10/03 01:04:32;;;;;;;4.10;0.98;;;14.80;95.50;;;;;;10265666;28;20110;-63
2022/10/03 01:09:59;;;;;;;3.67;0.60;;;14.70;95.40;;;;;;10281155;28;20110;-63
2022/10/03 01:15:12;;;;;;;3.30;0.68;;;14.70;95.40;;;;;;10294023;28;20042;-65
2022/10/03 01:20:27;;;;;;;2.85;0.82;;;14.70;95.40;;;;;;10293628;28;20038;-66
2022/10/03 01:25:36;;;;;;;6.97;1.20;;;14.70;95.40;;;;;;10290266;28;20492;-64
2022/10/03 01:30:48;;;;;;;1.83;0.73;;;14.60;95.40;;;;;;10298127;28;20035;-65
2022/10/03 01:35:55;;;;;;;5.18;1.05;;;14.60;95.40;;;;;;10291061;28;20035;-63
2022/10/03 01:41:22;;;;;;;3.45;0.90;;;14.60;95.40;;;;;;10290285;28;20159;-64
2022/10/03 01:46:35;;;;;;;3.58;0.68;;;14.60;95.40;;;;;;10273568;28;20088;-63
2022/10/03 01:52:00;;;;;;;3.90;0.95;;;14.60;95.40;;;;;;10284564;28;20106;-65
2022/10/03 01:57:20;;;;;;;3.58;0.55;;;14.60;95.30;;;;;;10288277;28;20058;-63
2022/10/03 02:02:30;;;;;;;1.65;0.63;;;14.50;95.30;;;;;;10293530;28;20042;-62
2022/10/03 02:07:40;;;;;;;4.03;0.70;;;14.50;95.30;;;;;;10286465;28;20041;-62
2022/10/03 02:12:54;;;;;;;2.90;0.65;;;14.50;95.30;;;;;;10286283;28;20029;-63
2022/10/03 02:18:16;;;;;;;0.98;0.50;;;14.40;95.30;;;;;;10286721;28;20710;-64
2022/10/03 02:23:25;;;;;;;1.75;0.52;;;14.40;95.30;;;;;;10292251;28;20395;-63
2022/10/03 02:28:45;;;;;;;2.60;0.77;;;14.40;95.30;;;;;;10286532;28;20054;-64
2022/10/03 02:33:51;;;;;;;2.25;0.70;;;14.40;95.30;;;;;;10279195;28;20474;-62
2022/10/03 02:39:46;;;;;;;2.13;0.60;;;14.40;95.30;;;;;;10304354;28;20854;-63
2022/10/03 02:44:50;;;;;;;2.95;0.60;;;14.40;95.30;;;;;;10140018;29;20405;-63
2022/10/03 02:50:18;;;;;;;2.83;0.95;;;14.30;95.30;;;;;;10269466;28;20042;-63
2022/10/03 02:55:56;;;;;;;0.60;0.30;;;14.30;95.20;;;;;;10303383;28;20113;-63
2022/10/03 03:01:21;;;;;;;1.80;0.40;;;14.30;95.20;;;;;;10302662;28;20082;-64
2022/10/03 03:06:25;;;;;;;4.65;0.55;;;14.30;95.30;;;;;;10303626;28;20071;-64
2022/10/03 03:11:39;;;;;;;2.42;0.57;;;14.30;95.20;;;;;;10299458;28;20031;-64
2022/10/03 03:16:53;;;;;;;2.00;0.43;;;14.30;95.20;;;;;;10287666;28;20034;-66
2022/10/03 03:22:31;;;;;;;2.55;0.45;;;14.20;95.20;;;;;;10277953;28;20042;-64
2022/10/03 03:27:46;;;;;;;2.42;0.40;;;14.20;95.10;;;;;;10298679;28;20042;-63
2022/10/03 03:33:08;;;;;;;2.05;0.55;;;14.20;95.20;;;;;;10298244;28;20038;-64
2022/10/03 03:38:40;;;;;;;2.22;0.63;;;14.20;95.20;;;;;;10290331;28;20049;-62
2022/10/03 03:43:50;;;;;;;1.95;1.00;;;14.20;95.20;;;;;;10295783;28;20038;-63
2022/10/03 03:49:08;;;;;;;1.35;0.40;;;14.20;95.20;;;;;;10301407;28;20026;-62
2022/10/03 03:54:33;;;;;;;0.85;0.50;;;14.10;95.10;;;;;;10295791;28;20033;-63
2022/10/03 04:00:04;;;;;;;0.63;0.30;;;14.10;95.10;;;;;;10292295;28;20050;-63
2022/10/03 04:05:19;;;;;;;1.38;0.40;;;14.10;95.10;;;;;;10301439;28;20459;-63
2022/10/03 04:10:48;;;;;;;0.65;0.50;;;14.10;95.10;;;;;;10300120;28;20023;-63
2022/10/03 04:16:10;;;;;;;0.93;0.40;;;14.00;95.00;;;;;;10299630;28;20033;-62
2022/10/03 04:21:40;;;;;;;1.70;0.50;;;14.00;95.00;;;;;;10299010;28;20104;-63
2022/10/03 04:27:14;;;;;;;0.70;0.40;;;14.00;95.00;;;;;;10301318;28;20083;-63
2022/10/03 04:32:40;;;;;;;1.70;0.32;;;14.00;95.10;;;;;;10262033;28;20042;-63
2022/10/03 04:37:54;;;;;;;2.15;0.47;;;14.00;95.00;;;;;;10297059;28;20023;-63
2022/10/03 04:43:36;;;;;;;1.38;0.32;;;14.00;95.10;;;;;;10302463;28;20399;-62
2022/10/03 04:48:49;;;;;;;2.05;0.35;;;13.90;95.00;;;;;;10100396;29;20589;-63
2022/10/03 04:54:05;;;;;;;1.23;0.40;;;13.90;95.10;;;;;;10268525;28;20046;-63
2022/10/03 04:59:41;;;;;;;0.70;0.40;;;13.90;95.00;;;;;;10305314;28;20557;-64
2022/10/03 05:04:42;;;;;;;0.40;0.30;;;13.90;95.00;;;;;;10307410;28;20493;-63
2022/10/03 05:09:51;;;;;;;0.75;0.30;;;13.90;95.00;;;;;;10302144;28;20031;-63
2022/10/03 05:15:19;;;;;;;1.13;0.40;;;13.80;95.00;;;;;;10310406;28;20837;-63
2022/10/03 05:21:06;;;;;;;2.77;0.30;;;13.80;95.00;;;;;;10307703;28;20042;-63
2022/10/03 05:26:41;;;;;;;0.52;0.20;;;13.80;95.20;;;;;;10241683;28;20378;-64
2022/10/03 05:32:16;;;;;;;0.68;0.30;;;13.80;94.90;;;;;;10307530;28;20062;-62
2022/10/03 05:37:38;;;;;;;0.50;0.28;;;13.80;94.90;;;;;;10305277;28;20372;-62
2022/10/03 05:43:03;;;;;;;0.55;0.32;;;13.70;94.90;;;;;;10300474;28;20035;-63
2022/10/03 05:48:39;;;;;;;0.45;0.20;;;13.70;94.90;;;;;;10298073;28;20019;-62
2022/10/03 05:54:16;;;;;;;1.85;0.50;;;13.70;94.80;;;;;;10297969;28;20386;-63
2022/10/03 05:59:23;;;;;;;0.50;0.22;;;13.70;94.80;;;;;;10291360;28;20065;-64
2022/10/03 06:04:40;;;;;;;0.88;0.40;;;13.70;94.90;;;;;;10225380;28;20031;-62
2022/10/03 06:10:14;;;;;;;4.15;0.70;;;13.70;94.80;;;;;;10216581;28;20140;-63
2022/10/03 06:15:36;;;;;;;0.82;0.40;;;13.70;94.80;;;;;;10224314;23;20042;-63
2022/10/03 06:21:05;;;;;;;1.92;0.50;;;13.70;94.90;;;;;;10216967;28;20267;-63
2022/10/03 06:26:24;;;;;;;1.50;0.50;;;13.70;94.80;;;;;;10214515;28;20214;-62
2022/10/03 06:31:40;;;;;;;1.52;0.60;;;13.60;94.80;;;;;;10221324;28;20030;-63
2022/10/03 06:36:51;;;;;;;1.00;0.60;;;13.70;94.80;;;;;;10202484;28;20661;-63
2022/10/03 06:42:29;;;;;;;1.45;0.70;;;13.70;94.80;;;;;;10202267;28;20038;-62
2022/10/03 06:48:07;;;;;;;2.47;0.55;;;13.70;94.80;;;;;;10207489;28;20022;-62
2022/10/03 06:53:42;;;;;;;2.03;0.75;;;13.70;94.80;;;;;;10193989;28;20113;-62
2022/10/03 06:59:20;;;;;;;2.38;0.55;;;13.70;94.80;;;;;;10198909;28;20034;-62
2022/10/03 07:04:42;;;;;;;2.00;0.60;;;13.70;94.80;;;;;;10208957;28;20035;-61
2022/10/03 07:10:01;;;;;;;2.75;0.88;;;13.70;94.80;;;;;;10201369;28;20113;-62
2022/10/03 07:15:04;;;;;;;;;;;13.70;94.80;;;;;;10204815;28;20112;-63
2022/10/03 07:20:48;;;;;;;1.67;0.47;;;13.70;94.90;;;;;;10220793;28;20377;-63
2022/10/03 07:26:16;;;;;;;4.25;0.80;;;13.70;94.80;;;;;;10214627;28;20045;-62
2022/10/03 07:31:44;;;;;;;1.77;0.60;;;13.90;95.20;;;;;;10210724;28;20142;-64
2022/10/03 07:43:15;;;;;;;6.53;1.80;;;14.20;95.00;;;;;;10226044;28;20046;-67
2022/10/03 07:48:54;;;;;;;7.15;1.50;;;14.10;95.00;;;;;;10227379;28;20073;-65
2022/10/03 07:54:16;;;;;;;8.25;1.83;;;14.00;95.80;;;;;;10228258;28;20497;-65
2022/10/03 07:59:37;;;;;;;5.75;1.70;;;14.00;96.10;;;;;;10204012;28;20094;-65
2022/10/03 08:04:43;;;;;;;2.55;1.10;;;14.00;96.10;;;;;;10210810;28;20053;-65
2022/10/03 08:09:54;;;;;;;5.63;1.00;;;14.20;96.00;;;;;;10328308;23;20489;-65
2022/10/03 08:14:57;;;;;;;2.38;1.08;;;14.30;95.80;;;;;;10159547;28;20099;-64
2022/10/03 08:20:22;;;;;;;3.25;1.10;;;14.40;95.70;;;;;;10161816;28;20055;-63
2022/10/03 08:26:13;;;;;;;3.22;0.88;;;14.40;95.70;;;;;;10148852;28;20032;-63
2022/10/03 08:31:13;;;;;;;4.40;0.90;;;14.80;95.80;;;;;;10171541;23;20047;-64
2022/10/03 08:36:37;;;;;;;2.58;0.90;;;14.60;95.50;;;;;;10184642;28;20550;-64
2022/10/03 08:41:56;;;;;;;1.20;0.70;;;14.60;95.60;;;;;;10196143;28;20660;-64
2022/10/03 08:47:46;;;;;;;;;;;;;;;;;;;;;
2022/10/03 08:53:45;;;;;;;3.33;0.65;;;14.70;95.50;;;;;;10196719;28;20050;-63
2022/10/03 08:59:43;;;;;;;1.30;0.50;;;15.40;95.70;;;;;;10190618;28;20429;-63
2022/10/03 09:10:24;;;;;;;3.13;0.90;;;14.90;95.30;;;;;;10162003;23;20687;-64
2022/10/03 09:16:22;;;;;;;2.22;1.00;;;14.50;95.40;;;;;;10150366;28;20858;-64
2022/10/03 09:22:00;;;;;;;3.00;0.73;;;15.00;95.40;;;;;;10160206;28;20314;-63
2022/10/03 09:27:15;;;;;;;3.35;0.95;;;15.10;95.30;;;;;;10159157;28;20031;-69
2022/10/03 09:32:31;;;;;;;2.88;0.88;;;15.00;95.20;;;;;;10175399;28;20035;-64
2022/10/03 09:37:47;;;;;;;7.00;0.80;;;15.20;95.20;;;;;;10172121;28;20173;-63
2022/10/03 09:43:19;;;;;;;8.00;0.90;;;15.20;95.70;;;;;;10179329;28;20694;-67
2022/10/03 09:48:26;;;;;;;3.88;0.65;;;15.40;96.20;;;;;;10132985;28;20401;-65
2022/10/03 09:53:50;;;;;;;5.20;0.77;;;15.40;95.80;;;;;;10169668;28;20176;-63
2022/10/03 09:59:32;;;;;;;4.88;0.88;;;15.50;96.80;;;;;;10172294;28;20047;-65
2022/10/03 10:04:48;;;;;;;4.18;0.88;;;15.10;96.30;;;;;;10212036;23;20452;-62
2022/10/03 10:10:20;;;;;;;2.88;0.80;;;15.70;96.50;;;;;;10192850;28;20596;-62
2022/10/03 10:15:42;;;;;;;5.47;1.27;;;15.70;96.60;;;;;;10203846;28;20394;-67
2022/10/03 10:20:52;;;;;;;7.03;1.25;;;15.50;96.50;;;;;;10193889;28;20042;-63
2022/10/03 10:26:11;;;;;;;8.45;1.00;;;15.50;96.20;;;;;;10211495;28;20038;-63
2022/10/03 10:31:36;;;;;;;4.43;0.88;;;15.60;96.40;;;;;;10283057;23;20054;-63
2022/10/03 10:37:37;;;;;;;5.97;1.00;;;15.60;96.70;;;;;;10204435;28;20044;-63
2022/10/03 10:43:16;;;;;;;6.65;1.00;;;15.70;96.50;;;;;;10200913;28;20186;-64
2022/10/03 10:48:56;;;;;;;6.18;0.98;;;15.80;96.70;;;;;;10196455;28;20669;-64
2022/10/03 10:54:18;;;;;;;6.50;1.05;;;15.70;97.00;;;;;;10186909;23;20051;-63
2022/10/03 10:59:45;;;;;;;4.20;0.80;;;15.80;96.70;;;;;;10217496;23;20419;-63
2022/10/03 11:05:28;;;;;;;6.80;1.08;;;15.90;96.70;;;;;;10241495;28;20037;-62
2022/10/03 11:11:26;;;;;;;8.85;1.05;;;15.90;97.00;;;;;;10256803;23;20057;-63
2022/10/03 11:17:08;;;;;;;6.45;0.70;;;16.00;96.50;;;;;;10257827;23;20052;-62
2022/10/03 11:22:46;;;;;;;2.78;0.60;;;16.00;96.00;;;;;;10183611;28;20136;-63
2022/10/03 11:28:11;;;;;;;5.65;0.80;;;16.10;96.10;;;;;;10189346;28;20161;-63
2022/10/03 11:34:09;;;;;;;8.02;1.25;;;16.30;95.70;;;;;;10177133;28;20560;-62
2022/10/03 11:39:41;;;;;;;3.40;0.57;;;16.30;95.70;;;;;;10159247;28;20043;-62
2022/10/03 11:45:19;;;;;;;6.55;0.70;;;16.40;95.40;;;;;;10195948;28;20027;-63
2022/10/03 11:50:49;;;;;;;4.67;1.10;;;16.50;95.40;;;;;;10105810;28;20054;-63
2022/10/03 11:55:54;;;;;;;3.80;0.60;;;16.80;94.90;;;;;;10129447;28;20302;-63
2022/10/03 12:01:08;;;;;;;4.85;0.68;;;16.90;94.90;;;;;;10198143;28;20041;-63
2022/10/03 12:11:52;;;;;;;10.23;2.60;;;16.90;94.60;;;;;;10192953;28;20030;-63
2022/10/03 12:17:17;;;;;;;3.35;0.77;;;16.90;94.70;;;;;;10202248;28;20412;-62
2022/10/03 12:22:41;;;;;;;2.45;0.75;;;17.00;94.90;;;;;;10201284;28;20039;-63
2022/10/03 12:27:50;;;;;;;2.33;0.70;;;17.00;94.60;;;;;;10197018;28;20320;-62
2022/10/03 12:33:37;;;;;;;;;;;;;;;;;;;;;
2022/10/03 12:38:54;;;;;;;3.83;0.60;;;17.30;94.30;;;;;;10197572;28;20463;-64
2022/10/03 12:44:27;;;;;;;6.00;0.63;;;17.20;94.30;;;;;;10204652;28;20039;-62
2022/10/03 12:50:00;;;;;;;3.65;0.90;;;17.30;94.00;;;;;;10189275;28;20532;-62
2022/10/03 12:55:12;;;;;;;3.03;0.70;;;17.50;93.70;;;;;;10209163;28;20452;-62
2022/10/03 13:00:22;;;;;;;2.33;0.68;;;17.50;93.80;;;;;;10221463;28;20042;-62
2022/10/03 13:05:53;;;;;;;4.38;0.70;;;17.50;93.80;;;;;;10214172;28;20267;-63
2022/10/03 13:11:03;;;;;;;3.85;0.60;;;17.40;93.00;;;;;;10201145;28;20586;-62
2022/10/03 13:16:26;;;;;;;2.80;1.17;;;17.40;93.80;;;;;;10193772;28;20047;-62
2022/10/03 13:22:02;;;;;;;1.77;0.60;;;17.40;93.30;;;;;;10186766;28;20161;-62
2022/10/03 13:27:20;;;;;;;5.63;1.05;;;17.50;93.00;;;;;;10192553;28;20398;-65
2022/10/03 13:32:36;;;;;;;10.23;0.98;;;17.50;93.60;;;;;;10199424;28;20066;-63
2022/10/03 13:38:16;;;;;;;4.22;0.82;;;17.70;93.60;;;;;;10184618;28;20034;-61
2022/10/03 13:43:35;;;;;;;7.50;1.10;;;17.50;93.30;;;;;;10190213;28;20274;-61
2022/10/03 13:48:36;;;;;;;4.05;0.65;;;17.90;93.60;;;;;;10194949;28;20019;-66
2022/10/03 13:53:45;;;;;;;3.10;1.02;;;17.60;93.60;;;;;;10180461;28;20035;-61
2022/10/03 13:59:04;;;;;;;2.65;0.60;;;17.70;93.00;;;;;;10186289;28;20058;-61
2022/10/03 14:04:10;;;;;;;4.40;0.65;;;17.70;93.10;;;;;;10199848;28;20497;-64
2022/10/03 14:09:42;;;;;;;7.32;0.85;;;17.70;93.10;;;;;;10204360;28;20045;-61
2022/10/03 14:14:51;;;;;;;2.85;0.50;;;17.70;93.10;;;;;;10203761;28;20145;-61
2022/10/03 14:20:28;;;;;;;4.32;0.57;;;17.70;93.20;;;;;;10207904;28;20062;-61
2022/10/03 14:25:59;;;;;;;3.70;0.75;;;17.70;92.50;;;;;;10174592;28;20514;-62
2022/10/03 14:31:25;;;;;;;1.95;0.90;;;17.70;92.50;;;;;;10204729;28;20857;-62
2022/10/03 14:36:38;;;;;;;2.20;0.70;;;17.60;93.00;;;;;;10167176;28;20138;-61
2022/10/03 14:42:06;;;;;;;7.65;1.85;;;17.50;92.90;;;;;;10193317;28;20583;-67
2022/10/03 14:47:13;;;;;;;4.53;1.23;;;17.40;93.40;;;;;;10201398;28;20436;-62
2022/10/03 14:52:33;;;;;;;3.07;0.80;;;17.30;93.50;;;;;;10202112;28;20101;-63
2022/10/03 14:57:43;;;;;;;5.18;0.80;;;17.30;93.60;;;;;;10199464;28;20030;-64
2022/10/03 15:02:45;;;;;;;4.75;0.70;;;17.30;93.50;;;;;;10200248;28;20581;-61
2022/10/03 15:07:50;;;;;;;1.73;0.60;;;17.30;93.60;;;;;;10199294;28;20035;-62
2022/10/03 15:13:04;;;;;;;2.95;1.00;;;17.30;93.60;;;;;;10198130;28;20727;-62
2022/10/03 15:18:15;;;;;;;3.88;0.85;;;17.30;93.60;;;;;;10189814;28;20563;-61
2022/10/03 15:23:38;;;;;;;4.70;1.20;;;17.20;93.80;;;;;;10185071;28;20231;-62
2022/10/03 15:28:46;;;;;;;3.33;1.08;;;17.30;93.90;;;;;;10180643;28;20357;-63
2022/10/03 15:33:54;;;;;;;2.47;0.60;;;17.20;94.00;;;;;;10184520;28;20027;-67
2022/10/03 15:38:59;;;;;;;;;;;17.20;94.10;;;;;;10155889;28;20058;-64
2022/10/03 15:44:05;;;;;;;4.68;0.90;;;17.20;94.10;;;;;;10199880;28;20068;-64
2022/10/03 15:49:21;;;;;;;1.98;0.70;;;17.10;94.30;;;;;;10197727;28;20378;-62
2022/10/03 15:54:27;;;;;;;3.08;0.80;;;17.10;94.40;;;;;;10196172;28;20322;-62
2022/10/03 15:59:33;;;;;;;3.05;0.60;;;17.10;94.40;;;;;;10194027;28;20045;-62
2022/10/03 16:04:44;;;;;;;2.03;1.20;;;17.10;94.50;;;;;;10169760;28;20141;-64
2022/10/03 16:09:57;;;;;;;3.72;1.23;;;17.10;94.60;;;;;;10168762;28;20458;-65
2022/10/03 16:15:50;;;;;;;5.50;1.10;;;17.10;94.80;;;;;;10212268;23;20065;-65
2022/10/03 16:21:19;;;;;;;5.32;1.10;;;17.00;94.80;;;;;;10233819;23;20534;-64
2022/10/03 16:26:39;;;;;;;;;;;17.00;94.90;;;;;;10203307;28;20948;-69
2022/10/03 16:38:23;;;;;;;5.90;1.55;;;16.80;95.30;;;;;;10267529;23;20173;-68
2022/10/03 16:43:25;;;;;;;3.47;1.30;;;16.80;95.40;;;;;;10260866;23;20137;-62
2022/10/03 17:00:52;;;;;;;2.97;1.02;;;16.70;95.60;;;;;;10446662;23;20051;31
2022/10/03 17:06:45;;;;;;;2.70;0.80;;;16.70;95.70;;;;;;9745749;30;21077;-63
2022/10/03 17:18:34;;;;;;;3.97;1.02;;;16.60;95.80;;;;;;10146820;24;20598;-63
2022/10/03 17:25:01;;;;;;;5.25;1.30;;;16.60;95.80;;;;;;9915345;23;20069;-62
2022/10/03 17:30:36;;;;;;;2.38;0.90;;;16.60;95.90;;;;;;9882615;29;20033;-63
2022/10/03 17:36:01;;;;;;;3.95;1.10;;;16.60;95.90;;;;;;9947657;29;20405;-62
2022/10/03 17:41:50;;;;;;;1.73;0.95;;;16.50;95.90;;;;;;9951050;29;20054;-62
2022/10/03 17:47:21;;;;;;;4.57;1.75;;;16.50;95.90;;;;;;9954914;29;20030;-62
2022/10/03 17:52:46;;;;;;;2.50;0.93;;;16.50;95.90;;;;;;9945726;29;20046;-62
2022/10/03 17:58:13;;;;;;;5.95;1.13;;;16.50;95.90;;;;;;9945245;29;20018;-62
2022/10/03 18:04:00;;;;;;;4.68;1.27;;;16.50;96.00;;;;;;9948817;29;20035;-61
2022/10/03 18:09:25;;;;;;;6.47;1.30;;;16.50;96.00;;;;;;9942935;29;20050;-66
2022/10/03 18:15:18;;;;;;;3.53;1.10;;;16.40;96.00;;;;;;9939455;29;20046;-62
2022/10/03 18:21:10;;;;;;;4.30;1.05;;;16.40;96.00;;;;;;9954543;29;20665;-62
2022/10/03 18:26:58;;;;;;;3.00;1.00;;;16.40;96.00;;;;;;9950321;29;20062;-63
2022/10/03 18:32:21;;;;;;;3.90;1.60;;;16.40;96.10;;;;;;9947407;29;20047;-68
2022/10/03 18:37:43;;;;;;;2.80;1.10;;;16.40;96.00;;;;;;9956526;29;20015;-62
2022/10/03 18:43:05;;;;;;;5.07;1.27;;;16.30;96.10;;;;;;9948221;29;20046;-63
2022/10/03 18:48:36;;;;;;;2.78;1.02;;;16.30;96.10;;;;;;9944228;29;20027;-62
2022/10/03 18:54:10;;;;;;;3.35;1.30;;;16.30;96.10;;;;;;9947602;29;20129;-63
2022/10/03 18:59:37;;;;;;;4.35;1.48;;;16.30;96.10;;;;;;9956439;29;20046;-62
2022/10/03 19:05:13;;;;;;;2.83;0.98;;;16.30;96.20;;;;;;9942308;29;20067;-67
2022/10/03 19:10:37;;;;;;;3.22;1.10;;;16.30;96.20;;;;;;9943713;29;20524;-63
2022/10/03 19:16:15;;;;;;;5.85;1.40;;;16.20;96.20;;;;;;9933253;29;20034;-63
2022/10/03 19:21:38;;;;;;;1.70;1.02;;;16.20;96.20;;;;;;9938916;29;20485;-63
2022/10/03 19:27:09;;;;;;;4.28;1.05;;;16.20;96.30;;;;;;9940346;29;20051;-68
2022/10/03 19:32:58;;;;;;;2.03;1.10;;;16.20;96.30;;;;;;9937927;29;20709;-63
2022/10/03 19:38:28;;;;;;;4.05;1.40;;;16.20;96.40;;;;;;9937762;29;20496;-62
2022/10/03 19:43:49;;;;;;;4.30;1.45;;;16.10;96.40;;;;;;9933230;29;20050;-62
2022/10/03 19:49:40;;;;;;;5.93;1.58;;;16.10;96.50;;;;;;9942797;29;20047;-63
2022/10/03 19:55:00;;;;;;;3.28;1.70;;;16.00;96.50;;;;;;9941593;29;20034;-63
2022/10/03 20:00:30;;;;;;;2.65;1.60;;;16.00;96.50;;;;;;10007263;23;20062;-62
2022/10/03 20:06:01;;;;;;;3.53;1.63;;;16.00;96.60;;;;;;9975426;29;20038;-63
2022/10/03 20:11:44;;;;;;;6.05;1.92;;;16.00;96.60;;;;;;9970965;29;20428;-64
2022/10/03 20:17:19;;;;;;;2.53;1.27;;;15.90;96.60;;;;;;9973495;29;20416;-62
2022/10/03 20:22:40;;;;;;;5.10;2.00;;;15.90;96.60;;;;;;9973214;29;20124;-67
2022/10/03 20:28:03;;;;;;;5.95;2.75;;;15.90;96.60;;;;;;9973864;29;20023;-67
2022/10/03 20:33:28;;;;;;;7.05;2.35;;;15.90;96.60;;;;;;9973438;29;21848;-63
2022/10/03 20:39:10;;;;;;;2.63;1.70;;;15.90;96.60;;;;;;9980990;29;20034;-62
2022/10/03 20:44:35;;;;;;;3.55;2.20;;;15.90;96.70;;;;;;9984100;29;20042;-63
2022/10/03 20:50:06;;;;;;;5.63;2.22;;;15.80;96.60;;;;;;9985680;29;20042;-66
2022/10/03 20:55:57;;;;;;;4.70;2.28;;;15.80;96.70;;;;;;9985538;29;20022;-64
2022/10/03 21:01:27;;;;;;;4.05;2.17;;;15.80;96.70;;;;;;9988029;29;20050;-63
2022/10/03 21:07:18;;;;;;;4.75;2.40;;;15.80;96.70;;;;;;9992911;29;20466;-62
2022/10/03 21:12:47;;;;;;;7.78;2.80;;;15.80;96.70;;;;;;9975302;29;20511;-62
2022/10/03 21:18:21;;;;;;;5.65;2.83;;;15.70;96.70;;;;;;9983017;29;20034;-62
2022/10/03 21:24:03;;;;;;;4.80;2.67;;;15.70;96.70;;;;;;9989341;29;20046;-63
2022/10/03 21:29:22;;;;;;;5.82;2.58;;;15.70;96.70;;;;;;9980599;29;20042;-67
2022/10/03 21:34:48;;;;;;;6.38;2.38;;;15.70;96.70;;;;;;9976201;29;20038;-62
2022/10/03 21:40:29;;;;;;;4.35;2.58;;;15.70;96.70;;;;;;9986912;29;20535;-62
2022/10/03 21:46:25;;;;;;;5.28;2.80;;;15.70;96.70;;;;;;9991582;29;20389;-62
2022/10/03 21:51:50;;;;;;;6.22;2.55;;;15.70;96.70;;;;;;9982424;29;20046;-62
2022/10/03 21:57:47;;;;;;;7.03;3.15;;;15.70;96.70;;;;;;9986027;29;20050;-62
2022/10/03 22:03:17;;;;;;;8.43;3.33;;;15.60;96.70;;;;;;9993739;29;20042;-62
2022/10/03 22:08:39;;;;;;;5.05;2.63;;;15.60;96.70;;;;;;9989598;29;20025;-63
2022/10/03 22:14:08;;;;;;;5.78;2.70;;;15.60;96.70;;;;;;9999380;29;20046;-62
2022/10/03 22:19:34;;;;;;;4.32;2.75;;;15.60;96.70;;;;;;9993494;29;20065;-62
2022/10/03 22:25:03;;;;;;;3.92;2.30;;;15.60;96.70;;;;;;9989711;29;20039;-62
2022/10/03 22:30:22;;;;;;;9.13;3.35;;;15.60;96.70;;;;;;9987017;29;20266;-62
2022/10/03 22:35:59;;;;;;;6.20;3.30;;;15.60;96.70;;;;;;9979934;24;20138;-62
2022/10/03 22:41:24;;;;;;;6.03;2.63;;;15.60;96.70;;;;;;9960475;29;20404;-63
2022/10/03 22:46:49;;;;;;;4.90;2.33;;;15.50;96.70;;;;;;9976722;29;20030;-63
2022/10/03 22:52:23;;;;;;;4.80;3.08;;;15.50;96.60;;;;;;9976330;29;20037;-62
2022/10/03 22:57:43;;;;;;;4.35;2.30;;;15.50;96.60;;;;;;9970076;29;20066;-62
2022/10/03 23:03:21;;;;;;;5.15;2.20;;;15.50;96.60;;;;;;9973206;29;20061;-62
2022/10/03 23:08:54;;;;;;;6.82;2.55;;;15.50;96.90;;;;;;9974524;29;20026;-62
2022/10/03 23:14:22;;;;;;;7.18;2.55;;;15.50;96.60;;;;;;9965281;29;20042;-62
2022/10/03 23:19:45;;;;;;;3.70;2.08;;;15.40;96.60;;;;;;9987129;29;20426;-62
2022/10/03 23:25:20;;;;;;;4.43;2.67;;;15.50;96.60;;;;;;9973780;29;20325;-62
2022/10/03 23:30:49;;;;;;;3.20;2.25;;;15.40;96.90;;;;;;9977234;29;20027;-63
2022/10/03 23:36:23;;;;;;;6.45;2.30;;;15.40;96.60;;;;;;9971336;29;20050;-63
2022/10/03 23:41:53;;;;;;;3.78;2.45;;;15.40;96.60;;;;;;9971962;29;20042;-62
2022/10/03 23:47:15;;;;;;;7.07;2.67;;;15.40;96.60;;;;;;9969857;29;20030;-62
2022/10/03 23:52:45;;;;;;;6.07;2.45;;;15.40;96.60;;;;;;9987422;29;20045;-62
2022/10/03 23:58:17;;;;;;;4.55;2.10;;;15.40;96.60;;;;;;9983952;29;20627;-62
